sensor_id;sensor_type;location;lat;lon;timestamp;temperature;humidity
43143;DHT22;28750;59.842;17.584;2024-03-06T00:01:32;0.30;99.90
43143;DHT22;28750;59.842;17.584;2024-03-06T00:03:59;0.30;99.90
43143;DHT22;28750;59.842;17.584;2024-03-06T00:06:26;0.30;99.90
43143;DHT22;28750;59.842;17.584;2024-03-06T00:08:53;0.30;99.90
43143;DHT22;28750;59.842;17.584;2024-03-06T00:11:20;0.20;99.90
43143;DHT22;28750;59.842;17.584;2024-03-06T00:13:47;0.30;99.90
43143;DHT22;28750;59.842;17.584;2024-03-06T00:16:14;0.30;99.90
43143;DHT22;28750;59.842;17.584;2024-03-06T00:18:41;0.30;99.90
43143;DHT22;28750;59.842;17.584;2024-03-06T00:21:08;0.20;99.90
43143;DHT22;28750;59.842;17.584;2024-03-06T00:23:35;0.20;99.90
43143;DHT22;28750;59.842;17.584;2024-03-06T00:26:03;0.30;99.90
43143;DHT22;28750;59.842;17.584;2024-03-06T00:28:30;0.30;99.90
43143;DHT22;28750;59.842;17.584;2024-03-06T00:30:57;0.20;99.90
43143;DHT22;28750;59.842;17.584;2024-03-06T00:33:24;0.30;99.90
43143;DHT22;28750;59.842;17.584;2024-03-06T00:35:51;0.30;99.90
43143;DHT22;28750;59.842;17.584;2024-03-06T00:38:18;0.30;99.90
43143;DHT22;28750;59.842;17.584;2024-03-06T00:40:45;0.30;99.90
43143;DHT22;28750;59.842;17.584;2024-03-06T00:43:12;0.30;99.90
43143;DHT22;28750;59.842;17.584;2024-03-06T00:45:39;0.30;99.90
43143;DHT22;28750;59.842;17.584;2024-03-06T00:48:07;0.30;99.90
43143;DHT22;28750;59.842;17.584;2024-03-06T00:50:34;0.30;99.90
43143;DHT22;28750;59.842;17.584;2024-03-06T00:53:01;0.30;99.90
43143;DHT22;28750;59.842;17.584;2024-03-06T00:55:29;0.30;99.90
43143;DHT22;28750;59.842;17.584;2024-03-06T00:57:56;0.30;99.90
43143;DHT22;28750;59.842;17.584;2024-03-06T01:00:23;0.30;99.90
43143;DHT22;28750;59.842;17.584;2024-03-06T01:02:50;0.30;99.90
43143;DHT22;28750;59.842;17.584;2024-03-06T01:05:17;0.30;99.90
43143;DHT22;28750;59.842;17.584;2024-03-06T01:07:44;0.20;99.90
43143;DHT22;28750;59.842;17.584;2024-03-06T01:10:11;0.30;99.90
43143;DHT22;28750;59.842;17.584;2024-03-06T01:12:38;0.30;99.90
43143;DHT22;28750;59.842;17.584;2024-03-06T01:15:05;0.30;99.90
43143;DHT22;28750;59.842;17.584;2024-03-06T01:17:34;0.40;99.90
43143;DHT22;28750;59.842;17.584;2024-03-06T01:20:01;0.30;99.90
43143;DHT22;28750;59.842;17.584;2024-03-06T01:22:29;0.30;99.90
43143;DHT22;28750;59.842;17.584;2024-03-06T01:24:56;0.30;99.90
43143;DHT22;28750;59.842;17.584;2024-03-06T01:27:23;0.30;99.90
43143;DHT22;28750;59.842;17.584;2024-03-06T01:29:50;0.30;99.90
43143;DHT22;28750;59.842;17.584;2024-03-06T01:32:17;0.30;99.90
43143;DHT22;28750;59.842;17.584;2024-03-06T01:34:44;0.30;99.90
43143;DHT22;28750;59.842;17.584;2024-03-06T01:37:11;0.20;99.90
43143;DHT22;28750;59.842;17.584;2024-03-06T01:39:38;0.20;99.90
43143;DHT22;28750;59.842;17.584;2024-03-06T01:42:05;0.20;99.90
43143;DHT22;28750;59.842;17.584;2024-03-06T01:44:31;0.20;99.90
43143;DHT22;28750;59.842;17.584;2024-03-06T01:46:58;0.10;99.90
43143;DHT22;28750;59.842;17.584;2024-03-06T01:49:25;0.20;99.90
43143;DHT22;28750;59.842;17.584;2024-03-06T01:51:53;0.20;99.90
43143;DHT22;28750;59.842;17.584;2024-03-06T01:54:20;0.10;99.90
43143;DHT22;28750;59.842;17.584;2024-03-06T01:56:47;0.20;99.90
43143;DHT22;28750;59.842;17.584;2024-03-06T01:59:15;0.20;99.90
43143;DHT22;28750;59.842;17.584;2024-03-06T02:01:43;0.10;99.90
43143;DHT22;28750;59.842;17.584;2024-03-06T02:04:10;0.10;99.90
43143;DHT22;28750;59.842;17.584;2024-03-06T02:06:38;0.00;99.90
43143;DHT22;28750;59.842;17.584;2024-03-06T02:09:05;0.10;99.90
43143;DHT22;28750;59.842;17.584;2024-03-06T02:11:33;0.10;99.90
43143;DHT22;28750;59.842;17.584;2024-03-06T02:14:00;0.10;99.90
43143;DHT22;28750;59.842;17.584;2024-03-06T02:16:28;0.10;99.90
43143;DHT22;28750;59.842;17.584;2024-03-06T02:18:56;0.00;99.90
43143;DHT22;28750;59.842;17.584;2024-03-06T02:21:24;-0.10;99.90
43143;DHT22;28750;59.842;17.584;2024-03-06T02:23:51;-0.10;99.90
43143;DHT22;28750;59.842;17.584;2024-03-06T02:26:19;-0.10;99.90
43143;DHT22;28750;59.842;17.584;2024-03-06T02:28:53;-0.20;99.90
43143;DHT22;28750;59.842;17.584;2024-03-06T02:31:21;-0.20;99.90
43143;DHT22;28750;59.842;17.584;2024-03-06T02:33:49;-0.20;99.90
43143;DHT22;28750;59.842;17.584;2024-03-06T02:36:16;-0.20;99.90
43143;DHT22;28750;59.842;17.584;2024-03-06T02:38:44;-0.10;99.90
43143;DHT22;28750;59.842;17.584;2024-03-06T02:41:11;-0.20;99.90
43143;DHT22;28750;59.842;17.584;2024-03-06T02:43:41;-0.20;99.90
43143;DHT22;28750;59.842;17.584;2024-03-06T02:46:08;-0.20;99.90
43143;DHT22;28750;59.842;17.584;2024-03-06T02:48:35;-0.20;99.90
43143;DHT22;28750;59.842;17.584;2024-03-06T02:51:02;-0.20;99.90
43143;DHT22;28750;59.842;17.584;2024-03-06T02:53:29;-0.20;99.90
43143;DHT22;28750;59.842;17.584;2024-03-06T02:55:56;-0.20;99.90
43143;DHT22;28750;59.842;17.584;2024-03-06T02:58:23;-0.30;99.90
43143;DHT22;28750;59.842;17.584;2024-03-06T03:00:50;-0.30;99.90
43143;DHT22;28750;59.842;17.584;2024-03-06T03:03:17;-0.30;99.90
43143;DHT22;28750;59.842;17.584;2024-03-06T03:05:45;-0.20;99.90
43143;DHT22;28750;59.842;17.584;2024-03-06T03:08:12;-0.30;99.90
43143;DHT22;28750;59.842;17.584;2024-03-06T03:10:39;-0.30;99.90
43143;DHT22;28750;59.842;17.584;2024-03-06T03:13:06;-0.30;99.90
43143;DHT22;28750;59.842;17.584;2024-03-06T03:15:33;-0.30;99.90
43143;DHT22;28750;59.842;17.584;2024-03-06T03:18:00;-0.30;99.90
43143;DHT22;28750;59.842;17.584;2024-03-06T03:20:27;-0.30;99.90
43143;DHT22;28750;59.842;17.584;2024-03-06T03:22:54;-0.30;99.90
43143;DHT22;28750;59.842;17.584;2024-03-06T03:25:21;-0.20;99.90
43143;DHT22;28750;59.842;17.584;2024-03-06T03:27:48;-0.30;99.90
43143;DHT22;28750;59.842;17.584;2024-03-06T03:30:17;-0.30;99.90
43143;DHT22;28750;59.842;17.584;2024-03-06T03:32:47;-0.30;99.90
43143;DHT22;28750;59.842;17.584;2024-03-06T03:35:14;-0.30;99.90
43143;DHT22;28750;59.842;17.584;2024-03-06T03:37:42;-0.30;99.90
43143;DHT22;28750;59.842;17.584;2024-03-06T03:40:10;-0.30;99.90
43143;DHT22;28750;59.842;17.584;2024-03-06T03:42:38;-0.40;99.90
43143;DHT22;28750;59.842;17.584;2024-03-06T03:45:05;-0.30;99.90
43143;DHT22;28750;59.842;17.584;2024-03-06T03:47:32;-0.30;99.90
43143;DHT22;28750;59.842;17.584;2024-03-06T03:49:59;-0.30;99.90
43143;DHT22;28750;59.842;17.584;2024-03-06T03:52:26;-0.30;99.90
43143;DHT22;28750;59.842;17.584;2024-03-06T03:54:53;-0.30;99.90
43143;DHT22;28750;59.842;17.584;2024-03-06T03:57:20;-0.20;99.90
43143;DHT22;28750;59.842;17.584;2024-03-06T03:59:47;-0.30;99.90
43143;DHT22;28750;59.842;17.584;2024-03-06T04:02:14;-0.30;99.90
43143;DHT22;28750;59.842;17.584;2024-03-06T04:04:41;-0.30;99.90
43143;DHT22;28750;59.842;17.584;2024-03-06T04:07:08;-0.30;99.90
43143;DHT22;28750;59.842;17.584;2024-03-06T04:09:35;-0.20;99.90
43143;DHT22;28750;59.842;17.584;2024-03-06T04:12:03;-0.20;99.90
43143;DHT22;28750;59.842;17.584;2024-03-06T04:14:30;-0.20;99.90
43143;DHT22;28750;59.842;17.584;2024-03-06T04:16:57;-0.20;99.90
43143;DHT22;28750;59.842;17.584;2024-03-06T04:19:24;-0.20;99.90
43143;DHT22;28750;59.842;17.584;2024-03-06T04:21:51;-0.20;99.90
43143;DHT22;28750;59.842;17.584;2024-03-06T04:24:18;-0.20;99.90
43143;DHT22;28750;59.842;17.584;2024-03-06T04:26:45;-0.30;99.90
43143;DHT22;28750;59.842;17.584;2024-03-06T04:29:12;-0.30;99.90
43143;DHT22;28750;59.842;17.584;2024-03-06T04:31:39;-0.30;99.90
43143;DHT22;28750;59.842;17.584;2024-03-06T04:34:06;-0.30;99.90
43143;DHT22;28750;59.842;17.584;2024-03-06T04:36:33;-0.20;99.90
43143;DHT22;28750;59.842;17.584;2024-03-06T04:39:00;-0.30;99.90
43143;DHT22;28750;59.842;17.584;2024-03-06T04:41:27;-0.20;99.90
43143;DHT22;28750;59.842;17.584;2024-03-06T04:43:54;-0.30;99.90
43143;DHT22;28750;59.842;17.584;2024-03-06T04:46:23;-0.20;99.90
43143;DHT22;28750;59.842;17.584;2024-03-06T04:48:50;-0.20;99.90
43143;DHT22;28750;59.842;17.584;2024-03-06T04:51:17;-0.30;99.90
43143;DHT22;28750;59.842;17.584;2024-03-06T04:53:45;-0.30;99.90
43143;DHT22;28750;59.842;17.584;2024-03-06T04:56:12;-0.30;99.90
43143;DHT22;28750;59.842;17.584;2024-03-06T04:58:40;-0.30;99.90
43143;DHT22;28750;59.842;17.584;2024-03-06T05:01:07;-0.30;99.90
43143;DHT22;28750;59.842;17.584;2024-03-06T05:03:34;-0.30;99.90
43143;DHT22;28750;59.842;17.584;2024-03-06T05:06:00;-0.30;99.90
43143;DHT22;28750;59.842;17.584;2024-03-06T05:08:28;-0.30;99.90
43143;DHT22;28750;59.842;17.584;2024-03-06T05:10:55;-0.30;99.90
43143;DHT22;28750;59.842;17.584;2024-03-06T05:13:23;-0.30;99.90
43143;DHT22;28750;59.842;17.584;2024-03-06T05:15:49;-0.30;99.90
43143;DHT22;28750;59.842;17.584;2024-03-06T05:18:17;-0.30;99.90
43143;DHT22;28750;59.842;17.584;2024-03-06T05:20:45;-0.30;99.90
43143;DHT22;28750;59.842;17.584;2024-03-06T05:23:12;-0.20;99.90
43143;DHT22;28750;59.842;17.584;2024-03-06T05:25:40;-0.20;99.90
43143;DHT22;28750;59.842;17.584;2024-03-06T05:28:07;-0.20;99.90
43143;DHT22;28750;59.842;17.584;2024-03-06T05:30:34;-0.20;99.90
43143;DHT22;28750;59.842;17.584;2024-03-06T05:33:01;-0.20;99.90
43143;DHT22;28750;59.842;17.584;2024-03-06T05:35:28;-0.20;99.90
43143;DHT22;28750;59.842;17.584;2024-03-06T05:37:54;-0.20;99.90
43143;DHT22;28750;59.842;17.584;2024-03-06T05:40:22;-0.20;99.90
43143;DHT22;28750;59.842;17.584;2024-03-06T05:42:49;-0.10;99.90
43143;DHT22;28750;59.842;17.584;2024-03-06T05:45:16;-0.10;99.90
43143;DHT22;28750;59.842;17.584;2024-03-06T05:47:43;-0.10;99.90
43143;DHT22;28750;59.842;17.584;2024-03-06T05:50:11;-0.10;99.90
43143;DHT22;28750;59.842;17.584;2024-03-06T05:52:38;-0.20;99.90
43143;DHT22;28750;59.842;17.584;2024-03-06T05:55:05;-0.10;99.90
43143;DHT22;28750;59.842;17.584;2024-03-06T05:57:32;-0.10;99.90
43143;DHT22;28750;59.842;17.584;2024-03-06T05:59:59;-0.10;99.90
43143;DHT22;28750;59.842;17.584;2024-03-06T06:02:26;-0.10;99.90
43143;DHT22;28750;59.842;17.584;2024-03-06T06:04:53;-0.10;99.90
43143;DHT22;28750;59.842;17.584;2024-03-06T06:07:20;-0.10;99.90
43143;DHT22;28750;59.842;17.584;2024-03-06T06:09:47;-0.10;99.90
43143;DHT22;28750;59.842;17.584;2024-03-06T06:12:14;-0.10;99.90
43143;DHT22;28750;59.842;17.584;2024-03-06T06:14:41;-0.10;99.90
43143;DHT22;28750;59.842;17.584;2024-03-06T06:17:08;-0.10;99.90
43143;DHT22;28750;59.842;17.584;2024-03-06T06:19:35;0.00;99.90
43143;DHT22;28750;59.842;17.584;2024-03-06T06:22:02;0.00;99.90
43143;DHT22;28750;59.842;17.584;2024-03-06T06:24:29;0.00;99.90
43143;DHT22;28750;59.842;17.584;2024-03-06T06:26:56;0.00;99.90
43143;DHT22;28750;59.842;17.584;2024-03-06T06:29:23;0.00;99.90
43143;DHT22;28750;59.842;17.584;2024-03-06T06:31:50;0.00;99.90
43143;DHT22;28750;59.842;17.584;2024-03-06T06:34:17;0.00;99.90
43143;DHT22;28750;59.842;17.584;2024-03-06T06:36:47;0.10;99.90
43143;DHT22;28750;59.842;17.584;2024-03-06T06:39:13;0.10;99.90
43143;DHT22;28750;59.842;17.584;2024-03-06T06:41:41;0.10;99.90
43143;DHT22;28750;59.842;17.584;2024-03-06T06:44:09;0.10;99.90
43143;DHT22;28750;59.842;17.584;2024-03-06T06:46:36;0.10;99.90
43143;DHT22;28750;59.842;17.584;2024-03-06T06:49:03;0.10;99.90
43143;DHT22;28750;59.842;17.584;2024-03-06T06:51:29;0.10;99.90
43143;DHT22;28750;59.842;17.584;2024-03-06T06:53:56;0.10;99.90
43143;DHT22;28750;59.842;17.584;2024-03-06T06:56:23;0.00;99.90
43143;DHT22;28750;59.842;17.584;2024-03-06T06:58:50;0.10;99.90
43143;DHT22;28750;59.842;17.584;2024-03-06T07:01:17;0.10;99.90
43143;DHT22;28750;59.842;17.584;2024-03-06T07:03:45;0.10;99.90
43143;DHT22;28750;59.842;17.584;2024-03-06T07:06:12;0.10;99.90
43143;DHT22;28750;59.842;17.584;2024-03-06T07:08:39;0.10;99.90
43143;DHT22;28750;59.842;17.584;2024-03-06T07:11:06;0.20;99.90
43143;DHT22;28750;59.842;17.584;2024-03-06T07:13:32;0.10;99.90
43143;DHT22;28750;59.842;17.584;2024-03-06T07:15:59;0.20;99.90
43143;DHT22;28750;59.842;17.584;2024-03-06T07:18:28;0.20;99.90
43143;DHT22;28750;59.842;17.584;2024-03-06T07:20:55;0.20;99.90
43143;DHT22;28750;59.842;17.584;2024-03-06T07:23:22;0.20;99.90
43143;DHT22;28750;59.842;17.584;2024-03-06T07:25:49;0.30;99.90
43143;DHT22;28750;59.842;17.584;2024-03-06T07:28:16;0.20;99.90
43143;DHT22;28750;59.842;17.584;2024-03-06T07:30:43;0.30;99.90
43143;DHT22;28750;59.842;17.584;2024-03-06T07:33:10;0.20;99.90
43143;DHT22;28750;59.842;17.584;2024-03-06T07:35:39;0.20;99.90
43143;DHT22;28750;59.842;17.584;2024-03-06T07:38:06;0.20;99.90
43143;DHT22;28750;59.842;17.584;2024-03-06T07:40:32;0.20;99.90
43143;DHT22;28750;59.842;17.584;2024-03-06T07:42:59;0.20;99.90
43143;DHT22;28750;59.842;17.584;2024-03-06T07:45:26;0.20;99.90
43143;DHT22;28750;59.842;17.584;2024-03-06T07:47:53;0.10;99.90
43143;DHT22;28750;59.842;17.584;2024-03-06T07:50:19;0.20;99.90
43143;DHT22;28750;59.842;17.584;2024-03-06T07:52:46;0.20;99.90
43143;DHT22;28750;59.842;17.584;2024-03-06T07:55:12;0.30;99.90
43143;DHT22;28750;59.842;17.584;2024-03-06T07:57:39;0.30;99.90
43143;DHT22;28750;59.842;17.584;2024-03-06T08:00:06;0.40;99.90
43143;DHT22;28750;59.842;17.584;2024-03-06T08:02:40;0.30;99.90
43143;DHT22;28750;59.842;17.584;2024-03-06T08:05:11;0.30;99.90
43143;DHT22;28750;59.842;17.584;2024-03-06T08:07:39;0.30;99.90
43143;DHT22;28750;59.842;17.584;2024-03-06T08:10:10;0.40;99.90
43143;DHT22;28750;59.842;17.584;2024-03-06T08:12:39;0.50;99.90
43143;DHT22;28750;59.842;17.584;2024-03-06T08:15:08;0.70;99.90
43143;DHT22;28750;59.842;17.584;2024-03-06T08:17:38;0.90;99.90
43143;DHT22;28750;59.842;17.584;2024-03-06T08:20:06;1.10;99.90
43143;DHT22;28750;59.842;17.584;2024-03-06T08:22:34;1.20;99.90
43143;DHT22;28750;59.842;17.584;2024-03-06T08:25:10;1.00;99.90
43143;DHT22;28750;59.842;17.584;2024-03-06T08:27:39;1.10;99.90
43143;DHT22;28750;59.842;17.584;2024-03-06T08:30:06;1.10;99.90
43143;DHT22;28750;59.842;17.584;2024-03-06T08:32:34;1.40;99.90
43143;DHT22;28750;59.842;17.584;2024-03-06T08:35:02;1.60;99.90
43143;DHT22;28750;59.842;17.584;2024-03-06T08:37:31;1.80;99.90
43143;DHT22;28750;59.842;17.584;2024-03-06T08:39:59;1.90;99.90
43143;DHT22;28750;59.842;17.584;2024-03-06T08:42:26;1.90;99.90
43143;DHT22;28750;59.842;17.584;2024-03-06T08:44:53;2.10;99.90
43143;DHT22;28750;59.842;17.584;2024-03-06T08:47:20;2.20;99.90
43143;DHT22;28750;59.842;17.584;2024-03-06T08:49:47;2.20;99.90
43143;DHT22;28750;59.842;17.584;2024-03-06T08:52:14;2.20;99.90
43143;DHT22;28750;59.842;17.584;2024-03-06T08:54:41;2.00;99.90
43143;DHT22;28750;59.842;17.584;2024-03-06T08:57:08;2.20;99.90
43143;DHT22;28750;59.842;17.584;2024-03-06T08:59:35;2.20;99.90
43143;DHT22;28750;59.842;17.584;2024-03-06T09:02:14;2.20;99.90
43143;DHT22;28750;59.842;17.584;2024-03-06T09:04:42;2.10;99.90
43143;DHT22;28750;59.842;17.584;2024-03-06T09:07:09;2.00;99.90
43143;DHT22;28750;59.842;17.584;2024-03-06T09:09:35;1.80;99.90
43143;DHT22;28750;59.842;17.584;2024-03-06T09:12:08;1.70;99.90
43143;DHT22;28750;59.842;17.584;2024-03-06T09:14:36;1.90;99.90
43143;DHT22;28750;59.842;17.584;2024-03-06T09:17:03;2.20;99.90
43143;DHT22;28750;59.842;17.584;2024-03-06T09:19:31;2.20;99.90
43143;DHT22;28750;59.842;17.584;2024-03-06T09:21:58;2.20;99.90
43143;DHT22;28750;59.842;17.584;2024-03-06T09:24:25;2.30;99.90
43143;DHT22;28750;59.842;17.584;2024-03-06T09:26:53;2.40;99.90
43143;DHT22;28750;59.842;17.584;2024-03-06T09:29:20;2.50;99.90
43143;DHT22;28750;59.842;17.584;2024-03-06T09:31:47;2.70;99.90
43143;DHT22;28750;59.842;17.584;2024-03-06T09:34:14;2.30;99.90
43143;DHT22;28750;59.842;17.584;2024-03-06T09:36:45;2.70;99.90
43143;DHT22;28750;59.842;17.584;2024-03-06T09:39:12;3.10;99.90
43143;DHT22;28750;59.842;17.584;2024-03-06T09:41:44;2.90;99.90
43143;DHT22;28750;59.842;17.584;2024-03-06T09:44:12;3.10;99.90
43143;DHT22;28750;59.842;17.584;2024-03-06T09:46:41;3.00;99.90
43143;DHT22;28750;59.842;17.584;2024-03-06T09:49:10;3.10;99.90
43143;DHT22;28750;59.842;17.584;2024-03-06T09:51:47;3.60;99.90
43143;DHT22;28750;59.842;17.584;2024-03-06T09:54:15;3.90;99.90
43143;DHT22;28750;59.842;17.584;2024-03-06T09:56:43;3.90;99.90
43143;DHT22;28750;59.842;17.584;2024-03-06T09:59:10;3.90;99.90
43143;DHT22;28750;59.842;17.584;2024-03-06T10:01:39;3.90;99.90
43143;DHT22;28750;59.842;17.584;2024-03-06T10:04:29;4.00;99.90
43143;DHT22;28750;59.842;17.584;2024-03-06T10:06:55;4.20;29.00
43143;DHT22;28750;59.842;17.584;2024-03-06T10:09:23;3.50;1.00
43143;DHT22;28750;59.842;17.584;2024-03-06T10:11:50;4.00;1.00
43143;DHT22;28750;59.842;17.584;2024-03-06T10:14:18;4.20;14.90
43143;DHT22;28750;59.842;17.584;2024-03-06T10:16:58;4.30;1.00
43143;DHT22;28750;59.842;17.584;2024-03-06T10:19:26;4.50;99.90
43143;DHT22;28750;59.842;17.584;2024-03-06T10:21:54;4.40;99.90
43143;DHT22;28750;59.842;17.584;2024-03-06T10:24:25;4.60;99.90
43143;DHT22;28750;59.842;17.584;2024-03-06T10:26:56;4.90;99.90
43143;DHT22;28750;59.842;17.584;2024-03-06T10:29:24;4.70;1.00
43143;DHT22;28750;59.842;17.584;2024-03-06T10:31:52;4.30;99.90
43143;DHT22;28750;59.842;17.584;2024-03-06T10:34:20;4.30;99.90
43143;DHT22;28750;59.842;17.584;2024-03-06T10:36:57;4.40;99.90
43143;DHT22;28750;59.842;17.584;2024-03-06T10:39:24;4.70;98.00
43143;DHT22;28750;59.842;17.584;2024-03-06T10:41:52;4.80;10.50
43143;DHT22;28750;59.842;17.584;2024-03-06T10:44:26;5.20;50.40
43143;DHT22;28750;59.842;17.584;2024-03-06T10:47:03;5.30;1.00
43143;DHT22;28750;59.842;17.584;2024-03-06T10:49:31;5.40;1.00
43143;DHT22;28750;59.842;17.584;2024-03-06T10:52:00;5.20;1.00
43143;DHT22;28750;59.842;17.584;2024-03-06T10:54:28;5.80;1.00
43143;DHT22;28750;59.842;17.584;2024-03-06T10:56:56;6.00;99.90
43143;DHT22;28750;59.842;17.584;2024-03-06T10:59:24;4.90;1.00
43143;DHT22;28750;59.842;17.584;2024-03-06T11:01:53;5.70;71.50
43143;DHT22;28750;59.842;17.584;2024-03-06T11:04:23;6.20;99.90
43143;DHT22;28750;59.842;17.584;2024-03-06T11:06:51;6.10;1.00
43143;DHT22;28750;59.842;17.584;2024-03-06T11:09:19;5.50;99.90
43143;DHT22;28750;59.842;17.584;2024-03-06T11:11:53;5.50;99.90
43143;DHT22;28750;59.842;17.584;2024-03-06T11:14:21;5.50;51.30
43143;DHT22;28750;59.842;17.584;2024-03-06T11:17:01;5.60;1.00
43143;DHT22;28750;59.842;17.584;2024-03-06T11:19:29;4.80;99.90
43143;DHT22;28750;59.842;17.584;2024-03-06T11:21:56;5.50;1.80
43143;DHT22;28750;59.842;17.584;2024-03-06T11:24:24;5.60;1.00
43143;DHT22;28750;59.842;17.584;2024-03-06T11:27:01;5.90;1.00
43143;DHT22;28750;59.842;17.584;2024-03-06T11:32:16;5.80;1.00
43143;DHT22;28750;59.842;17.584;2024-03-06T11:34:43;5.10;99.90
43143;DHT22;28750;59.842;17.584;2024-03-06T11:37:10;5.30;99.90
43143;DHT22;28750;59.842;17.584;2024-03-06T11:39:38;5.20;99.90
43143;DHT22;28750;59.842;17.584;2024-03-06T11:42:06;5.50;99.90
43143;DHT22;28750;59.842;17.584;2024-03-06T11:44:34;5.70;99.90
43143;DHT22;28750;59.842;17.584;2024-03-06T11:49:29;5.50;99.90
43143;DHT22;28750;59.842;17.584;2024-03-06T11:52:00;5.90;1.00
43143;DHT22;28750;59.842;17.584;2024-03-06T11:54:27;5.20;99.90
43143;DHT22;28750;59.842;17.584;2024-03-06T11:56:56;5.60;1.00
43143;DHT22;28750;59.842;17.584;2024-03-06T11:59:23;5.70;99.90
43143;DHT22;28750;59.842;17.584;2024-03-06T12:02:12;5.50;99.90
43143;DHT22;28750;59.842;17.584;2024-03-06T12:04:38;5.60;99.90
43143;DHT22;28750;59.842;17.584;2024-03-06T12:07:05;5.50;99.90
43143;DHT22;28750;59.842;17.584;2024-03-06T12:09:32;5.50;99.90
43143;DHT22;28750;59.842;17.584;2024-03-06T12:12:00;5.50;99.90
43143;DHT22;28750;59.842;17.584;2024-03-06T12:14:27;5.80;99.90
43143;DHT22;28750;59.842;17.584;2024-03-06T12:16:57;5.70;99.90
43143;DHT22;28750;59.842;17.584;2024-03-06T12:19:43;5.70;99.90
43143;DHT22;28750;59.842;17.584;2024-03-06T12:22:11;5.70;99.90
43143;DHT22;28750;59.842;17.584;2024-03-06T12:24:39;5.60;1.00
43143;DHT22;28750;59.842;17.584;2024-03-06T12:27:07;5.50;99.90
43143;DHT22;28750;59.842;17.584;2024-03-06T12:29:34;5.60;99.90
43143;DHT22;28750;59.842;17.584;2024-03-06T12:32:02;5.50;1.00
43143;DHT22;28750;59.842;17.584;2024-03-06T12:34:30;5.30;1.00
43143;DHT22;28750;59.842;17.584;2024-03-06T12:37:07;5.30;99.90
43143;DHT22;28750;59.842;17.584;2024-03-06T12:39:34;5.40;1.00
43143;DHT22;28750;59.842;17.584;2024-03-06T12:42:02;5.40;99.90
43143;DHT22;28750;59.842;17.584;2024-03-06T12:44:29;5.70;99.90
43143;DHT22;28750;59.842;17.584;2024-03-06T12:46:56;5.40;99.90
43143;DHT22;28750;59.842;17.584;2024-03-06T12:49:22;5.30;99.90
43143;DHT22;28750;59.842;17.584;2024-03-06T12:51:49;5.10;1.00
43143;DHT22;28750;59.842;17.584;2024-03-06T12:54:19;4.90;99.90
43143;DHT22;28750;59.842;17.584;2024-03-06T12:56:45;5.30;1.00
43143;DHT22;28750;59.842;17.584;2024-03-06T12:59:12;5.30;99.90
43143;DHT22;28750;59.842;17.584;2024-03-06T13:01:39;5.20;99.90
43143;DHT22;28750;59.842;17.584;2024-03-06T13:04:06;5.10;99.90
43143;DHT22;28750;59.842;17.584;2024-03-06T13:06:33;5.00;99.90
43143;DHT22;28750;59.842;17.584;2024-03-06T13:09:00;4.80;1.00
43143;DHT22;28750;59.842;17.584;2024-03-06T13:11:27;4.80;99.90
43143;DHT22;28750;59.842;17.584;2024-03-06T13:13:54;4.90;99.90
43143;DHT22;28750;59.842;17.584;2024-03-06T13:16:21;4.50;1.00
43143;DHT22;28750;59.842;17.584;2024-03-06T13:18:48;4.30;56.00
43143;DHT22;28750;59.842;17.584;2024-03-06T13:21:17;4.30;99.90
43143;DHT22;28750;59.842;17.584;2024-03-06T13:23:44;4.10;99.90
43143;DHT22;28750;59.842;17.584;2024-03-06T13:26:11;4.00;99.90
43143;DHT22;28750;59.842;17.584;2024-03-06T13:28:39;4.10;99.90
43143;DHT22;28750;59.842;17.584;2024-03-06T13:31:07;4.00;99.90
43143;DHT22;28750;59.842;17.584;2024-03-06T13:33:34;4.00;99.90
43143;DHT22;28750;59.842;17.584;2024-03-06T13:36:01;4.10;99.90
43143;DHT22;28750;59.842;17.584;2024-03-06T13:38:28;4.00;99.90
43143;DHT22;28750;59.842;17.584;2024-03-06T13:40:55;3.90;99.90
43143;DHT22;28750;59.842;17.584;2024-03-06T13:43:22;3.90;99.90
43143;DHT22;28750;59.842;17.584;2024-03-06T13:45:49;3.90;99.90
43143;DHT22;28750;59.842;17.584;2024-03-06T13:48:16;3.80;1.00
43143;DHT22;28750;59.842;17.584;2024-03-06T13:50:43;3.80;1.00
43143;DHT22;28750;59.842;17.584;2024-03-06T13:53:11;3.80;1.00
43143;DHT22;28750;59.842;17.584;2024-03-06T13:55:38;3.70;1.00
43143;DHT22;28750;59.842;17.584;2024-03-06T13:58:05;3.70;1.00
43143;DHT22;28750;59.842;17.584;2024-03-06T14:00:33;3.70;1.00
43143;DHT22;28750;59.842;17.584;2024-03-06T14:03:01;3.80;11.30
43143;DHT22;28750;59.842;17.584;2024-03-06T14:05:28;3.70;1.00
43143;DHT22;28750;59.842;17.584;2024-03-06T14:07:55;3.70;1.50
43143;DHT22;28750;59.842;17.584;2024-03-06T14:10:22;3.60;13.90
43143;DHT22;28750;59.842;17.584;2024-03-06T14:12:49;3.60;44.90
43143;DHT22;28750;59.842;17.584;2024-03-06T14:15:18;3.50;31.90
43143;DHT22;28750;59.842;17.584;2024-03-06T14:17:45;3.50;49.20
43143;DHT22;28750;59.842;17.584;2024-03-06T14:20:12;3.50;93.70
43143;DHT22;28750;59.842;17.584;2024-03-06T14:22:39;3.40;99.90
43143;DHT22;28750;59.842;17.584;2024-03-06T14:25:05;3.40;99.90
43143;DHT22;28750;59.842;17.584;2024-03-06T14:27:33;3.50;99.90
43143;DHT22;28750;59.842;17.584;2024-03-06T14:30:01;3.40;99.90
43143;DHT22;28750;59.842;17.584;2024-03-06T14:32:28;3.40;99.90
43143;DHT22;28750;59.842;17.584;2024-03-06T14:34:55;3.30;99.90
43143;DHT22;28750;59.842;17.584;2024-03-06T14:37:22;3.30;99.90
43143;DHT22;28750;59.842;17.584;2024-03-06T14:39:49;3.30;99.90
43143;DHT22;28750;59.842;17.584;2024-03-06T14:42:16;3.50;99.90
43143;DHT22;28750;59.842;17.584;2024-03-06T14:44:44;3.40;99.90
43143;DHT22;28750;59.842;17.584;2024-03-06T14:47:12;3.30;99.90
43143;DHT22;28750;59.842;17.584;2024-03-06T14:49:42;3.50;99.90
43143;DHT22;28750;59.842;17.584;2024-03-06T14:52:13;3.30;99.90
43143;DHT22;28750;59.842;17.584;2024-03-06T14:54:40;3.30;99.90
43143;DHT22;28750;59.842;17.584;2024-03-06T14:57:08;3.30;99.90
43143;DHT22;28750;59.842;17.584;2024-03-06T14:59:35;3.10;99.90
43143;DHT22;28750;59.842;17.584;2024-03-06T15:02:02;3.10;99.90
43143;DHT22;28750;59.842;17.584;2024-03-06T15:04:29;3.00;99.90
43143;DHT22;28750;59.842;17.584;2024-03-06T15:06:56;3.10;99.90
43143;DHT22;28750;59.842;17.584;2024-03-06T15:09:24;3.10;99.90
43143;DHT22;28750;59.842;17.584;2024-03-06T15:11:52;3.10;99.90
43143;DHT22;28750;59.842;17.584;2024-03-06T15:14:19;3.00;99.90
43143;DHT22;28750;59.842;17.584;2024-03-06T15:16:46;2.90;99.90
43143;DHT22;28750;59.842;17.584;2024-03-06T15:19:13;3.00;99.90
43143;DHT22;28750;59.842;17.584;2024-03-06T15:21:40;2.90;99.90
43143;DHT22;28750;59.842;17.584;2024-03-06T15:24:07;2.80;99.90
43143;DHT22;28750;59.842;17.584;2024-03-06T15:26:34;2.80;99.90
43143;DHT22;28750;59.842;17.584;2024-03-06T15:29:02;2.80;99.90
43143;DHT22;28750;59.842;17.584;2024-03-06T15:31:30;2.80;99.90
43143;DHT22;28750;59.842;17.584;2024-03-06T15:33:57;2.80;99.90
43143;DHT22;28750;59.842;17.584;2024-03-06T15:36:23;2.80;99.90